Time;durP1;ratioP1;P1;durP2;ratioP2;P2;SDS_P1;SDS_P2;PMS_P1;PMS_P2;Temp;Humidity;BMP_temperature;BMP_pressure;BME280_temperature;BME280_humidity;BME280_pressure;Samples;Min_cycle;Max_cycle;Signal;HPM_P1;HPM_P2
2021/10/04 00:00:08;;;;;;;14.57;9.25;;;;;;;12.59;89.70;100573.81;5133087;28;20440;-70
2021/10/04 00:02:36;;;;;;;17.30;8.68;;;;;;;12.62;89.04;100567.41;5133364;27;20428;-70
2021/10/04 00:05:07;;;;;;;14.60;8.93;;;;;;;12.71;88.36;100560.63;5133230;27;20043;-70
2021/10/04 00:07:36;;;;;;;17.08;9.15;;;;;;;12.68;88.20;100568.84;5133432;28;20039;-70
2021/10/04 00:10:05;;;;;;;13.48;8.07;;;;;;;12.78;86.72;100569.97;5133066;28;20620;-69
2021/10/04 00:12:35;;;;;;;12.73;8.02;;;;;;;12.86;86.16;100565.00;5136747;27;20069;-69
2021/10/04 00:15:08;;;;;;;14.25;8.27;;;;;;;12.83;85.67;100562.50;5135920;27;20047;-71
2021/10/04 00:17:38;;;;;;;15.02;8.30;;;;;;;12.81;85.64;100564.41;5137221;27;20039;-70
2021/10/04 00:20:09;;;;;;;15.55;7.75;;;;;;;12.79;84.88;100561.00;5136840;27;20035;-70
2021/10/04 00:22:38;;;;;;;13.35;8.38;;;;;;;12.78;85.06;100553.91;5137133;27;20041;-70
2021/10/04 00:25:07;;;;;;;14.50;7.53;;;;;;;12.76;85.11;100555.84;5136584;27;20035;-70
2021/10/04 00:27:37;;;;;;;14.10;7.65;;;;;;;12.71;85.66;100553.44;5136926;27;20054;-71
2021/10/04 00:30:07;;;;;;;11.90;7.65;;;;;;;12.69;85.16;100549.16;5136653;27;20449;-70
2021/10/04 00:32:40;;;;;;;14.13;8.10;;;;;;;12.69;84.94;100544.66;5137099;27;20081;-70
2021/10/04 00:35:09;;;;;;;11.85;7.80;;;;;;;12.71;84.70;100539.22;5136466;27;20445;-70
2021/10/04 00:37:37;;;;;;;15.35;7.57;;;;;;;12.71;84.36;100541.88;5136859;27;20035;-70
2021/10/04 00:40:09;;;;;;;13.70;8.05;;;;;;;12.74;83.87;100530.97;5136329;27;20962;-71
2021/10/04 00:42:40;;;;;;;12.48;7.35;;;;;;;12.75;83.24;100538.94;5136501;27;20043;-70
2021/10/04 00:45:09;;;;;;;14.95;7.43;;;;;;;12.84;82.24;100529.44;5136496;27;20395;-70
2021/10/04 00:47:39;;;;;;;14.68;7.70;;;;;;;12.79;82.16;100535.09;5136668;27;20047;-70
2021/10/04 00:50:10;;;;;;;14.68;7.20;;;;;;;12.80;81.63;100527.91;5136071;27;20039;-70
2021/10/04 00:52:40;;;;;;;18.90;7.55;;;;;;;12.77;81.46;100525.44;5136687;27;20043;-69
2021/10/04 00:55:09;;;;;;;15.70;7.13;;;;;;;12.67;82.25;100530.53;5136223;27;20043;-69
2021/10/04 00:57:39;;;;;;;15.43;7.35;;;;;;;12.72;81.35;100522.19;5136284;27;20039;-69
2021/10/04 01:00:10;;;;;;;14.90;7.97;;;;;;;12.71;81.38;100517.78;5136105;27;20074;-69
2021/10/04 01:02:41;;;;;;;13.07;8.23;;;;;;;12.62;82.84;100516.56;5136572;27;20047;-70
2021/10/04 01:05:11;;;;;;;13.65;7.20;;;;;;;12.50;83.08;100512.88;5135867;27;20032;-69
2021/10/04 01:07:39;;;;;;;14.02;8.20;;;;;;;12.38;84.77;100526.19;5136206;27;20054;-69
2021/10/04 01:10:10;;;;;;;14.00;7.90;;;;;;;12.30;84.78;100518.63;5135887;27;20035;-70
2021/10/04 01:12:42;;;;;;;13.38;7.68;;;;;;;12.38;84.30;100518.16;5136093;27;20043;-71
2021/10/04 01:15:11;;;;;;;12.15;7.70;;;;;;;12.46;84.35;100518.53;5135722;27;20036;-70
2021/10/04 01:17:41;;;;;;;14.63;8.20;;;;;;;12.38;85.15;100518.16;5135727;27;20107;-69
2021/10/04 01:20:13;;;;;;;14.45;8.50;;;;;;;12.20;85.92;100520.16;5135684;27;20039;-70
2021/10/04 01:22:42;;;;;;;14.32;8.27;;;;;;;12.11;86.53;100518.06;5133513;27;20088;-69
2021/10/04 01:25:12;;;;;;;18.27;8.95;;;;;;;12.03;87.09;100519.38;5135368;27;20039;-70
2021/10/04 01:27:41;;;;;;;15.30;8.90;;;;;;;11.99;88.39;100519.69;5136035;27;20065;-70
2021/10/04 01:30:11;;;;;;;14.98;9.10;;;;;;;12.10;87.97;100519.03;5134078;27;20054;-70
2021/10/04 01:32:40;;;;;;;16.77;8.93;;;;;;;12.06;87.50;100522.81;5135872;27;20050;-71
2021/10/04 01:35:11;;;;;;;13.45;9.20;;;;;;;11.98;87.79;100526.84;5135216;27;20039;-71
2021/10/04 01:37:39;;;;;;;19.73;9.23;;;;;;;11.91;88.17;100520.16;5135859;27;20404;-71
2021/10/04 01:40:10;;;;;;;18.58;9.57;;;;;;;11.86;88.46;100518.72;5135073;27;20043;-71
2021/10/04 01:42:39;;;;;;;13.63;9.13;;;;;;;11.80;88.44;100517.28;5135428;27;20050;-70
2021/10/04 01:45:11;;;;;;;18.85;10.30;;;;;;;11.69;89.10;100517.06;5134999;27;20047;-70
2021/10/04 01:47:40;;;;;;;15.82;9.40;;;;;;;11.64;88.77;100516.44;5135351;27;20095;-70
2021/10/04 01:50:09;;;;;;;14.93;9.57;;;;;;;11.52;89.20;100522.53;5135075;27;20047;-70
2021/10/04 01:52:40;;;;;;;21.38;9.75;;;;;;;11.49;89.72;100525.41;5135261;27;20127;-70
2021/10/04 01:55:10;;;;;;;14.55;9.05;;;;;;;11.40;89.84;100522.31;5134953;27;20128;-71
2021/10/04 01:57:39;;;;;;;16.50;8.95;;;;;;;11.35;90.75;100526.19;5135045;27;20071;-71
2021/10/04 02:00:10;;;;;;;15.85;8.60;;;;;;;11.45;89.84;100520.22;5134854;27;20055;-71
2021/10/04 02:02:40;;;;;;;18.65;8.48;;;;;;;11.43;89.29;100526.63;5135168;27;20050;-71
2021/10/04 02:05:09;;;;;;;16.70;9.38;;;;;;;11.41;88.33;100521.38;5134808;27;20051;-71
2021/10/04 02:07:40;;;;;;;13.15;7.78;;;;;;;11.42;88.81;100515.06;5134835;27;20052;-71
2021/10/04 02:10:10;;;;;;;20.35;9.00;;;;;;;11.50;88.32;100511.09;5134810;27;20472;-71
2021/10/04 02:12:39;;;;;;;16.65;8.52;;;;;;;11.54;87.48;100516.16;5134971;27;20034;-71
2021/10/04 02:15:09;;;;;;;13.82;8.05;;;;;;;11.61;86.12;100516.66;5134385;27;20054;-71
2021/10/04 02:17:37;;;;;;;12.18;7.57;;;;;;;11.58;85.98;100515.03;5134891;27;20039;-71
2021/10/04 02:20:08;;;;;;;15.13;8.05;;;;;;;11.55;85.78;100517.88;5134356;27;20122;-71
2021/10/04 02:22:36;;;;;;;12.75;7.70;;;;;;;11.56;85.28;100526.75;5134661;27;20039;-71
2021/10/04 02:25:07;;;;;;;14.35;7.78;;;;;;;11.42;86.07;100527.56;5134206;27;20053;-71
2021/10/04 02:27:36;;;;;;;12.10;7.45;;;;;;;11.32;87.21;100519.25;5134628;27;20051;-71
2021/10/04 02:30:06;;;;;;;12.27;7.22;;;;;;;11.27;87.50;100518.63;5134117;27;20050;-71
2021/10/04 02:32:34;;;;;;;12.73;8.15;;;;;;;11.26;87.42;100518.72;5134492;27;20063;-69
2021/10/04 02:35:03;;;;;;;15.52;8.15;;;;;;;11.23;87.91;100522.44;5133924;27;20046;-70
2021/10/04 02:37:31;;;;;;;17.27;8.65;;;;;;;11.22;87.87;100526.06;5134401;27;20049;-70
2021/10/04 02:40:00;;;;;;;14.70;8.45;;;;;;;11.16;88.52;100521.94;5133972;27;20092;-70
2021/10/04 02:42:29;;;;;;;16.55;8.50;;;;;;;11.15;89.63;100530.03;5134432;27;20437;-70
2021/10/04 02:44:57;;;;;;;12.15;7.97;;;;;;;11.23;88.99;100533.13;5134262;27;20035;-70
2021/10/04 02:47:26;;;;;;;13.48;8.43;;;;;;;11.24;87.69;100534.00;5134207;27;20480;-70
2021/10/04 02:49:54;;;;;;;12.73;7.72;;;;;;;11.40;85.94;100529.47;5134046;27;20045;-77
2021/10/04 02:52:23;;;;;;;12.32;8.55;;;;;;;11.41;86.00;100521.38;5134287;27;20118;-70
2021/10/04 02:54:54;;;;;;;17.35;8.25;;;;;;;11.24;86.10;100529.50;5134306;27;20046;-69
2021/10/04 02:57:22;;;;;;;13.93;8.52;;;;;;;11.15;86.40;100535.38;5134107;27;20472;-69
2021/10/04 02:59:56;;;;;;;15.10;8.25;;;;;;;11.09;87.40;100535.72;5133849;27;20084;-74
2021/10/04 03:02:25;;;;;;;17.23;8.48;;;;;;;11.07;87.71;100529.63;5134398;27;20054;-70
2021/10/04 03:04:55;;;;;;;15.00;8.38;;;;;;;11.00;88.08;100528.25;5133665;27;20503;-71
2021/10/04 03:07:24;;;;;;;14.85;7.90;;;;;;;11.03;87.31;100536.09;5133966;27;20050;-70
2021/10/04 03:09:52;;;;;;;14.05;8.18;;;;;;;11.09;86.48;100536.59;5134030;27;20043;-71
2021/10/04 03:12:21;;;;;;;12.30;7.90;;;;;;;10.99;88.28;100539.88;5133893;27;20507;-71
2021/10/04 03:14:49;;;;;;;11.13;7.82;;;;;;;11.05;86.40;100534.19;5134137;27;20092;-70
2021/10/04 03:17:19;;;;;;;16.05;8.05;;;;;;;10.98;86.41;100539.00;5133526;28;20480;-70
2021/10/04 03:19:47;;;;;;;16.20;7.82;;;;;;;10.98;87.21;100532.81;5133905;28;20047;-71
2021/10/04 03:22:15;;;;;;;17.85;9.00;;;;;;;11.05;86.90;100534.19;5133471;28;20100;-71
2021/10/04 03:24:44;;;;;;;14.02;8.05;;;;;;;11.20;85.15;100541.34;5133584;27;20051;-70
2021/10/04 03:27:14;;;;;;;15.43;7.63;;;;;;;11.19;85.16;100534.25;5133861;27;20135;-70
2021/10/04 03:29:42;;;;;;;16.33;8.57;;;;;;;11.15;85.32;100551.41;5133820;28;20039;-69
2021/10/04 03:32:11;;;;;;;12.82;7.60;;;;;;;11.03;85.89;100552.97;5132243;28;20044;-70
2021/10/04 03:34:41;;;;;;;12.90;8.43;;;;;;;10.91;86.78;100544.81;5133794;28;20051;-70
2021/10/04 03:37:09;;;;;;;15.35;7.95;;;;;;;11.05;85.38;100536.88;5133285;27;20050;-72
2021/10/04 03:39:37;;;;;;;15.60;8.55;;;;;;;11.19;85.10;100544.91;5133892;28;20089;-70
2021/10/04 03:42:05;;;;;;;13.38;8.43;;;;;;;11.13;85.08;100542.63;5133218;28;20043;-70
2021/10/04 03:44:33;;;;;;;12.93;7.80;;;;;;;11.29;83.47;100539.91;5133480;28;20087;-70
2021/10/04 03:47:02;;;;;;;13.68;7.95;;;;;;;11.35;82.75;100540.41;5135720;27;20092;-71
2021/10/04 03:49:33;;;;;;;13.23;8.38;;;;;;;11.34;82.98;100536.03;5137603;27;20039;-70
2021/10/04 03:52:03;;;;;;;20.52;9.20;;;;;;;11.12;84.10;100541.78;5137196;27;20035;-71
2021/10/04 03:54:32;;;;;;;17.40;8.15;;;;;;;11.23;83.01;100535.81;5137995;27;20039;-70
2021/10/04 03:57:02;;;;;;;15.48;8.40;;;;;;;11.24;82.44;100529.50;5137261;27;20087;-70
2021/10/04 03:59:34;;;;;;;13.82;8.50;;;;;;;11.32;81.61;100535.28;5137649;27;20097;-73
2021/10/04 04:02:03;;;;;;;15.48;8.10;;;;;;;11.36;81.23;100528.78;5136952;27;20046;-73
2021/10/04 04:04:33;;;;;;;12.90;8.63;;;;;;;11.31;81.31;100538.88;5137139;27;20077;-73
2021/10/04 04:07:04;;;;;;;16.70;9.07;;;;;;;11.11;82.20;100544.53;5137292;27;20047;-72
2021/10/04 04:09:32;;;;;;;12.05;7.88;;;;;;;11.07;82.24;100550.97;5137198;27;20047;-72
2021/10/04 04:12:00;;;;;;;14.88;8.20;;;;;;;10.99;83.14;100548.75;5136925;27;20096;-73
2021/10/04 04:14:28;;;;;;;14.57;8.45;;;;;;;11.00;82.66;100546.94;5137234;27;20047;-73
2021/10/04 04:16:56;;;;;;;15.88;8.73;;;;;;;10.98;82.95;100544.34;5136915;27;20031;-71
2021/10/04 04:19:27;;;;;;;15.35;8.73;;;;;;;10.90;83.40;100554.59;5136894;27;20118;-71
2021/10/04 04:21:55;;;;;;;16.95;8.43;;;;;;;10.79;84.05;100555.22;5136894;27;20055;-70
2021/10/04 04:24:24;;;;;;;15.10;8.60;;;;;;;10.72;85.10;100548.53;5136408;27;20043;-71
2021/10/04 04:26:53;;;;;;;13.88;8.77;;;;;;;10.79;84.43;100555.22;5137096;27;20058;-70
2021/10/04 04:29:23;;;;;;;16.38;8.90;;;;;;;10.77;84.64;100557.09;5136656;27;20470;-72
2021/10/04 04:31:51;;;;;;;14.55;8.70;;;;;;;10.72;84.60;100561.00;5136674;27;20047;-71
2021/10/04 04:34:20;;;;;;;15.38;8.93;;;;;;;10.71;84.85;100568.16;5135229;27;20054;-71
2021/10/04 04:36:48;;;;;;;15.70;9.32;;;;;;;10.60;86.50;100570.53;5136799;27;20036;-71
2021/10/04 04:39:16;;;;;;;13.63;8.75;;;;;;;10.50;87.39;100569.31;5136320;27;20035;-71
2021/10/04 04:41:46;;;;;;;14.27;9.13;;;;;;;10.49;87.58;100567.59;5136446;27;20050;-71
2021/10/04 04:44:14;;;;;;;23.80;10.10;;;;;;;10.44;87.30;100573.19;5136127;27;20440;-71
2021/10/04 04:46:42;;;;;;;19.08;9.82;;;;;;;10.38;87.95;100581.50;5136381;27;20047;-71
2021/10/04 04:49:10;;;;;;;22.20;10.02;;;;;;;10.32;88.41;100577.34;5136275;27;20429;-71
2021/10/04 04:51:39;;;;;;;16.88;9.23;;;;;;;10.31;89.49;100588.97;5136609;27;20047;-72
2021/10/04 04:54:07;;;;;;;17.05;9.63;;;;;;;10.32;88.99;100587.16;5136072;27;20031;-73
2021/10/04 04:56:38;;;;;;;21.83;9.80;;;;;;;10.32;89.38;100588.03;5136551;27;20047;-73
2021/10/04 04:59:07;;;;;;;17.40;10.00;;;;;;;10.32;90.03;100588.03;5135864;27;20047;-71
2021/10/04 05:01:35;;;;;;;15.80;9.18;;;;;;;10.50;88.13;100585.31;5136287;27;20503;-70
2021/10/04 05:04:04;;;;;;;15.20;8.50;;;;;;;10.80;86.14;100588.94;5135926;27;20127;-71
2021/10/04 05:06:32;;;;;;;18.48;9.90;;;;;;;10.77;86.54;100606.94;5135898;27;20042;-70
2021/10/04 05:09:00;;;;;;;19.65;9.27;;;;;;;10.56;88.45;100607.19;5135826;27;20480;-70
2021/10/04 05:11:29;;;;;;;19.25;9.32;;;;;;;10.55;88.87;100599.28;5136104;27;20039;-70
2021/10/04 05:13:57;;;;;;;14.07;9.23;;;;;;;10.59;88.03;100611.47;5135708;27;20043;-70
2021/10/04 05:16:27;;;;;;;16.10;9.27;;;;;;;10.62;87.92;100615.81;5135428;27;20145;-71
2021/10/04 05:18:55;;;;;;;15.55;9.25;;;;;;;10.71;88.63;100616.16;5135743;27;20047;-72
2021/10/04 05:21:24;;;;;;;25.63;10.10;;;;;;;10.72;88.05;100614.38;5135452;27;20096;-71
2021/10/04 05:23:53;;;;;;;19.15;9.77;;;;;;;10.53;88.97;100612.69;5135842;27;20122;-69
2021/10/04 05:26:21;;;;;;;15.25;10.23;;;;;;;10.54;89.34;100613.56;5135238;27;20039;-70
2021/10/04 05:28:49;;;;;;;17.98;9.43;;;;;;;11.02;85.61;100615.31;5135839;27;20428;-70
2021/10/04 05:31:18;;;;;;;16.48;10.45;;;;;;;10.83;86.99;100625.31;5135587;27;20043;-70
2021/10/04 05:33:47;;;;;;;18.83;10.18;;;;;;;10.69;87.86;100618.03;5135885;27;20043;-70
2021/10/04 05:36:16;;;;;;;16.15;9.55;;;;;;;11.02;86.37;100614.47;5135027;27;20540;-70
2021/10/04 05:38:46;;;;;;;18.95;9.55;;;;;;;11.00;86.46;100621.66;5135331;27;20073;-71
2021/10/04 05:41:16;;;;;;;18.27;8.95;;;;;;;11.13;86.09;100626.25;5135144;27;20069;-71
2021/10/04 05:43:44;;;;;;;15.50;9.93;;;;;;;11.11;86.47;100627.28;5135424;27;20474;-70
2021/10/04 05:46:12;;;;;;;18.98;10.45;;;;;;;11.25;86.11;100629.16;5134958;27;20043;-70
2021/10/04 05:48:41;;;;;;;15.65;10.07;;;;;;;11.19;86.26;100627.69;5135242;27;20568;-68
2021/10/04 05:51:15;;;;;;;18.17;9.68;;;;;;;11.20;86.44;100624.09;5134725;27;20040;-69
2021/10/04 05:53:43;;;;;;;18.58;10.60;;;;;;;11.36;85.44;100634.75;5135075;27;20043;-69
2021/10/04 05:56:11;;;;;;;19.60;10.90;;;;;;;11.60;84.14;100637.84;5134650;27;20373;-70
2021/10/04 05:58:40;;;;;;;15.93;9.82;;;;;;;11.74;83.78;100641.41;5134895;27;20039;-69
2021/10/04 06:01:09;;;;;;;15.23;9.68;;;;;;;11.78;81.75;100631.41;5134580;27;20042;-69
2021/10/04 06:03:37;;;;;;;16.42;9.90;;;;;;;11.65;83.43;100630.38;5134907;27;20043;-69
2021/10/04 06:06:05;;;;;;;21.60;10.38;;;;;;;11.71;83.25;100638.06;5134841;27;20035;-69
2021/10/04 06:08:35;;;;;;;20.35;10.68;;;;;;;11.68;83.00;100638.25;5133209;27;20511;-69
2021/10/04 06:11:03;;;;;;;18.83;11.30;;;;;;;11.91;82.13;100636.91;5134987;27;20053;-69
2021/10/04 06:13:31;;;;;;;19.75;10.23;;;;;;;12.25;79.65;100646.44;5134684;27;20407;-69
2021/10/04 06:16:00;;;;;;;16.75;10.13;;;;;;;12.20;79.13;100640.50;5135000;27;20042;-69
2021/10/04 06:18:28;;;;;;;17.38;10.20;;;;;;;12.08;79.92;100638.59;5134535;27;20062;-70
2021/10/04 06:20:56;;;;;;;19.27;10.65;;;;;;;12.06;80.96;100638.66;5136424;27;20047;-70
2021/10/04 06:23:24;;;;;;;17.00;9.35;;;;;;;12.28;79.07;100639.09;5133425;27;20050;-70
2021/10/04 06:25:54;;;;;;;21.70;10.10;;;;;;;12.56;76.91;100646.28;5134791;27;20047;-71
2021/10/04 06:28:22;;;;;;;21.30;9.32;;;;;;;12.41;78.67;100649.88;5134734;27;20083;-71
2021/10/04 06:30:50;;;;;;;17.67;9.38;;;;;;;12.58;76.27;100649.72;5136193;27;20414;-68
2021/10/04 06:33:18;;;;;;;19.85;10.15;;;;;;;12.74;74.93;100651.41;5134832;27;20035;-71
2021/10/04 06:35:47;;;;;;;18.58;9.68;;;;;;;12.82;73.68;100649.13;5134689;27;20045;-70
2021/10/04 06:38:15;;;;;;;14.25;8.40;;;;;;;12.90;73.11;100644.16;5133962;27;20096;-70
2021/10/04 06:40:43;;;;;;;16.30;9.32;;;;;;;13.05;72.41;100643.19;5134242;27;20100;-70
2021/10/04 06:43:13;;;;;;;20.05;8.73;;;;;;;13.24;70.65;100647.38;5134229;27;20422;-70
2021/10/04 06:45:41;;;;;;;14.68;8.50;;;;;;;13.27;71.50;100642.69;5134415;27;20062;-70
2021/10/04 06:48:11;;;;;;;15.98;9.18;;;;;;;13.24;71.55;100652.75;5134066;27;20476;-71
2021/10/04 06:50:39;;;;;;;14.20;8.18;;;;;;;13.32;71.00;100653.13;5134234;27;20043;-71
2021/10/04 06:53:08;;;;;;;15.88;8.50;;;;;;;13.40;70.85;100661.47;5133818;27;20043;-70
2021/10/04 06:55:37;;;;;;;15.23;9.00;;;;;;;13.31;70.89;100662.94;5134360;27;20522;-72
2021/10/04 06:58:05;;;;;;;19.25;8.52;;;;;;;13.41;70.50;100661.41;5134280;27;20055;-71
2021/10/04 07:00:37;;;;;;;13.32;7.97;;;;;;;13.41;70.18;100660.53;5134089;27;20357;-71
2021/10/04 07:03:05;;;;;;;14.57;8.25;;;;;;;13.41;70.42;100665.88;5134075;27;20537;-71
2021/10/04 07:05:34;;;;;;;15.98;8.70;;;;;;;13.43;70.31;100663.97;5133847;27;20068;-69
2021/10/04 07:08:03;;;;;;;16.25;8.60;;;;;;;13.45;70.00;100662.06;5134020;27;20043;-70
2021/10/04 07:10:31;;;;;;;15.68;8.93;;;;;;;13.43;69.89;100669.34;5133409;27;20387;-71
2021/10/04 07:13:00;;;;;;;18.25;8.55;;;;;;;13.38;70.37;100666.94;5134038;27;20088;-70
2021/10/04 07:15:28;;;;;;;13.50;7.53;;;;;;;13.60;68.77;100665.53;5133593;28;20121;-70
2021/10/04 07:17:58;;;;;;;14.13;8.38;;;;;;;13.60;69.00;100674.44;5133517;28;20039;-70
2021/10/04 07:20:26;;;;;;;13.73;8.05;;;;;;;13.64;68.06;100678.66;5133470;27;20099;-69
2021/10/04 07:22:54;;;;;;;15.52;8.38;;;;;;;13.63;68.72;100678.75;5137435;27;20387;-70
2021/10/04 07:25:22;;;;;;;14.98;8.27;;;;;;;13.67;68.54;100672.22;5137474;27;20448;-69
2021/10/04 07:27:50;;;;;;;13.55;8.98;;;;;;;13.61;68.30;100684.22;5136915;27;20073;-70
2021/10/04 07:30:19;;;;;;;13.55;8.60;;;;;;;13.70;68.33;100670.22;5137209;27;20043;-69
2021/10/04 07:32:48;;;;;;;13.88;7.95;;;;;;;13.74;67.44;100668.16;5137511;27;20487;-70
2021/10/04 07:35:18;;;;;;;14.63;7.82;;;;;;;13.66;68.21;100676.72;5137486;27;20047;-70
2021/10/04 07:37:46;;;;;;;16.88;8.43;;;;;;;13.78;67.84;100677.72;5137839;27;20046;-70
2021/10/04 07:40:14;;;;;;;12.13;8.57;;;;;;;13.80;68.06;100673.13;5137245;27;20472;-72
2021/10/04 07:42:43;;;;;;;13.60;8.18;;;;;;;13.83;67.91;100678.28;5137584;27;20092;-71
2021/10/04 07:45:12;;;;;;;12.93;8.52;;;;;;;13.91;68.02;100675.09;5137383;27;20114;-71
2021/10/04 07:47:41;;;;;;;13.85;8.38;;;;;;;13.95;67.47;100676.59;5137569;27;20091;-71
2021/10/04 07:50:14;;;;;;;13.45;8.32;;;;;;;13.97;67.67;100674.66;5137487;27;20047;-70
2021/10/04 07:52:46;;;;;;;13.07;8.27;;;;;;;14.05;66.78;100675.00;5137876;27;20148;-71
2021/10/04 07:55:14;;;;;;;12.70;7.75;;;;;;;14.13;67.10;100675.34;5137649;27;20357;-75
2021/10/04 07:57:48;;;;;;;15.60;9.10;;;;;;;14.24;66.82;100683.50;5137410;27;20035;-71
2021/10/04 08:00:18;;;;;;;13.27;8.60;;;;;;;14.24;66.61;100675.47;5137432;27;20035;-71
2021/10/04 08:02:47;;;;;;;16.60;8.60;;;;;;;14.22;67.20;100672.03;5137795;27;20126;-69
2021/10/04 08:05:16;;;;;;;14.40;8.95;;;;;;;14.39;66.40;100678.94;5137194;27;20387;-71
2021/10/04 08:07:45;;;;;;;17.67;7.90;;;;;;;14.50;65.75;100679.06;5137232;27;20039;-71
2021/10/04 08:10:14;;;;;;;15.85;8.32;;;;;;;14.47;65.69;100673.03;5137030;27;20039;-71
2021/10/04 08:12:43;;;;;;;14.45;8.35;;;;;;;14.52;65.71;100670.91;5137387;27;20039;-70
2021/10/04 08:15:12;;;;;;;13.60;8.48;;;;;;;14.74;64.50;100670.25;5137317;27;20039;-71
2021/10/04 08:17:40;;;;;;;12.15;7.80;;;;;;;14.88;64.37;100668.31;5135915;27;20096;-70
2021/10/04 08:20:10;;;;;;;16.90;9.00;;;;;;;14.87;63.72;100666.59;5137072;27;20525;-70
2021/10/04 08:22:39;;;;;;;12.57;8.30;;;;;;;14.92;64.48;100662.72;5136712;27;20475;-71
2021/10/04 08:25:12;;;;;;;13.40;8.50;;;;;;;14.93;63.97;100664.44;5137083;27;20039;-70
2021/10/04 08:27:40;;;;;;;14.70;8.25;;;;;;;14.90;64.24;100665.50;5136878;27;20039;-70
2021/10/04 08:30:10;;;;;;;15.45;9.10;;;;;;;14.94;64.64;100660.78;5136740;27;20093;-69
2021/10/04 08:32:39;;;;;;;15.38;9.02;;;;;;;15.00;64.36;100665.72;5136153;27;20047;-70
2021/10/04 08:35:09;;;;;;;20.35;8.73;;;;;;;15.06;64.16;100665.28;5136608;27;20039;-70
2021/10/04 08:37:37;;;;;;;15.27;9.07;;;;;;;15.11;64.12;100658.59;5136464;27;20047;-70
2021/10/04 08:40:12;;;;;;;15.13;8.18;;;;;;;15.21;63.64;100655.22;5136940;27;20067;-70
2021/10/04 08:42:41;;;;;;;15.32;9.07;;;;;;;15.23;63.75;100654.13;5136500;27;20035;-71
2021/10/04 08:45:10;;;;;;;17.27;9.05;;;;;;;15.36;63.78;100646.91;5136275;27;20039;-70
2021/10/04 08:47:40;;;;;;;15.43;8.73;;;;;;;15.37;63.42;100653.16;5135653;27;20035;-70
2021/10/04 08:50:13;;;;;;;14.95;8.90;;;;;;;15.40;63.17;100652.91;5135900;27;20046;-70
2021/10/04 08:52:41;;;;;;;15.90;8.63;;;;;;;15.54;63.49;100652.75;5134799;27;20031;-70
2021/10/04 08:55:11;;;;;;;13.07;8.60;;;;;;;15.58;62.84;100658.75;5135401;27;20081;-69
2021/10/04 08:57:39;;;;;;;15.70;9.18;;;;;;;15.57;63.04;100648.97;5135110;27;20063;-70
2021/10/04 09:00:12;;;;;;;13.23;8.60;;;;;;;15.66;62.63;100648.31;5135595;27;20043;-69
2021/10/04 09:02:40;;;;;;;19.23;9.95;;;;;;;15.73;62.86;100644.22;5135887;27;20508;-69
2021/10/04 09:05:15;;;;;;;15.85;9.32;;;;;;;15.82;62.59;100646.16;5136193;27;20068;-69
2021/10/04 09:07:45;;;;;;;14.05;8.43;;;;;;;15.80;62.69;100640.06;5136063;27;20076;-69
2021/10/04 09:10:16;;;;;;;14.13;8.68;;;;;;;16.00;62.40;100636.69;5136695;27;20043;-69
2021/10/04 09:12:48;;;;;;;14.23;9.18;;;;;;;16.01;62.06;100641.09;5136111;27;20137;-69
2021/10/04 09:15:27;;;;;;;14.57;8.82;;;;;;;16.05;62.35;100639.06;5136419;27;20049;-71
2021/10/04 09:17:56;;;;;;;19.05;9.82;;;;;;;16.09;62.60;100642.34;5136098;27;20505;-70
2021/10/04 09:20:25;;;;;;;17.00;10.45;;;;;;;16.25;62.57;100637.50;5135647;27;20045;-70
2021/10/04 09:22:53;;;;;;;14.00;9.27;;;;;;;16.25;62.46;100640.19;5135883;27;20512;-70
2021/10/04 09:25:24;;;;;;;12.63;8.65;;;;;;;16.34;61.46;100639.50;5135964;27;20039;-71
2021/10/04 09:27:52;;;;;;;15.18;9.45;;;;;;;16.25;61.73;100640.19;5135983;27;20139;-70
2021/10/04 09:30:24;;;;;;;15.40;9.35;;;;;;;16.29;62.56;100645.22;5135337;27;20043;-75
2021/10/04 09:32:54;;;;;;;15.30;9.50;;;;;;;16.45;62.15;100642.19;5135547;27;20163;-70
2021/10/04 09:35:24;;;;;;;19.10;9.68;;;;;;;16.43;62.13;100636.09;5135272;27;20035;-71
2021/10/04 09:37:55;;;;;;;16.05;9.20;;;;;;;16.46;62.60;100637.66;5135605;27;20126;-70
2021/10/04 09:40:31;;;;;;;14.52;9.10;;;;;;;16.72;61.68;100627.56;5135225;27;20039;-71
2021/10/04 09:43:02;;;;;;;14.57;9.25;;;;;;;16.73;61.86;100630.13;5135162;27;20063;-70
2021/10/04 09:45:32;;;;;;;16.05;8.80;;;;;;;16.92;61.24;100628.66;5133450;27;20068;-71
2021/10/04 09:48:12;;;;;;;17.88;8.90;;;;;;;16.97;61.20;100626.44;5135140;27;20036;-72
2021/10/04 09:50:42;;;;;;;14.13;8.25;;;;;;;17.00;61.29;100620.81;5134961;27;20065;-70
2021/10/04 09:53:13;;;;;;;14.30;8.57;;;;;;;17.05;61.18;100614.06;5135140;27;20077;-70
2021/10/04 09:55:45;;;;;;;13.07;8.82;;;;;;;17.08;61.63;100621.91;5135356;27;20404;-70
2021/10/04 09:58:15;;;;;;;16.67;8.50;;;;;;;17.19;61.19;100621.03;5134978;27;20134;-69
2021/10/04 10:00:51;;;;;;;15.93;9.30;;;;;;;17.14;61.10;100624.09;5134853;27;20039;-69
2021/10/04 10:03:21;;;;;;;13.15;8.18;;;;;;;17.34;59.94;100629.69;5135522;27;20034;-69
2021/10/04 10:05:53;;;;;;;13.10;8.70;;;;;;;17.40;60.24;100623.78;5135066;27;20372;-69
2021/10/04 10:08:22;;;;;;;13.10;8.68;;;;;;;17.45;60.09;100621.56;5134804;27;20077;-70
2021/10/04 10:10:53;;;;;;;14.88;8.23;;;;;;;17.62;60.13;100622.84;5134867;27;20039;-69
2021/10/04 10:13:23;;;;;;;19.73;9.05;;;;;;;17.71;59.91;100620.28;5134475;27;20042;-69
2021/10/04 10:16:01;;;;;;;15.13;8.32;;;;;;;17.81;59.15;100611.41;5134400;27;20115;-69
2021/10/04 10:18:34;;;;;;;21.15;8.85;;;;;;;17.80;59.86;100605.16;5134040;27;20043;-70
2021/10/04 10:21:04;;;;;;;14.02;9.07;;;;;;;17.80;59.71;100609.69;5133667;27;20031;-69
2021/10/04 10:23:47;;;;;;;13.52;8.60;;;;;;;17.83;59.69;100588.69;5133814;27;20031;-69
2021/10/04 10:26:36;;;;;;;16.10;9.27;;;;;;;18.03;59.27;100597.78;5134443;27;20035;-69
2021/10/04 10:29:27;;;;;;;14.85;8.32;;;;;;;17.92;59.51;100598.69;5134124;27;20058;-69
2021/10/04 10:32:16;;;;;;;13.80;9.13;;;;;;;18.13;58.69;100585.19;5133962;27;20062;-70
2021/10/04 10:34:56;;;;;;;16.17;7.60;;;;;;;18.13;59.24;100587.91;5133738;27;20042;-69
2021/10/04 10:37:29;;;;;;;15.80;7.95;;;;;;;18.34;58.79;100581.66;5134274;27;20375;-69
2021/10/04 10:40:00;;;;;;;16.13;8.18;;;;;;;18.37;58.31;100575.97;5133901;27;20030;-70
2021/10/04 10:42:32;;;;;;;14.32;7.68;;;;;;;18.53;57.99;100573.66;5133778;27;20058;-70
2021/10/04 10:45:27;;;;;;;16.67;8.02;;;;;;;18.70;57.95;100575.72;5133973;27;20475;-70
2021/10/04 10:47:57;;;;;;;14.35;8.38;;;;;;;18.83;57.53;100570.94;5133572;27;20398;-71
2021/10/04 10:50:35;;;;;;;17.13;7.78;;;;;;;18.94;57.38;100563.72;5133806;27;20448;-74
2021/10/04 10:53:06;;;;;;;14.73;7.85;;;;;;;19.00;56.93;100561.28;5133794;27;20039;-71
2021/10/04 10:55:37;;;;;;;12.25;7.60;;;;;;;19.15;56.35;100559.06;5133672;27;20035;-71
2021/10/04 10:58:12;;;;;;;14.60;8.20;;;;;;;19.18;55.74;100553.34;5134415;27;20047;-71
2021/10/04 11:00:43;;;;;;;15.88;8.13;;;;;;;19.24;55.97;100554.66;5133772;27;20066;-71
2021/10/04 11:03:14;;;;;;;12.63;7.57;;;;;;;19.19;56.21;100541.53;5133963;27;20042;-71
2021/10/04 11:05:57;;;;;;;12.70;7.32;;;;;;;19.22;56.21;100548.53;5133961;27;20417;-71
2021/10/04 11:08:59;;;;;;;10.80;7.13;;;;;;;19.25;56.87;100546.41;5134078;27;20046;-70
2021/10/04 11:11:32;;;;;;;11.95;6.78;;;;;;;19.26;56.77;100537.28;5133922;27;20035;-71
2021/10/04 11:14:10;;;;;;;12.68;6.75;;;;;;;19.38;56.77;100538.00;5133725;27;20527;-71
2021/10/04 11:16:41;;;;;;;14.07;7.53;;;;;;;19.49;56.17;100537.00;5133873;27;20043;-71
2021/10/04 11:19:21;;;;;;;12.55;7.05;;;;;;;19.61;55.78;100530.50;5133956;27;20043;-70
2021/10/04 11:21:51;;;;;;;13.50;6.85;;;;;;;19.61;55.90;100530.50;5133647;28;20080;-71
2021/10/04 11:24:21;;;;;;;11.48;6.63;;;;;;;19.63;55.96;100523.09;5133803;28;20064;-69
2021/10/04 11:26:52;;;;;;;12.43;7.22;;;;;;;19.71;55.56;100520.53;5133472;28;20047;-71
2021/10/04 11:29:22;;;;;;;10.50;6.45;;;;;;;19.83;55.58;100519.34;5133922;28;20103;-71